sensor_id;sensor_type;location;lat;lon;timestamp;P1;durP1;ratioP1;P2;durP2;ratioP2
59998;SDS011;45859;51.378;6.736;2024-03-23T00:52:43;8.03;;;2.00;;
59998;SDS011;45859;51.378;6.736;2024-03-23T00:55:10;6.60;;;1.97;;
59998;SDS011;45859;51.378;6.736;2024-03-23T00:57:36;8.47;;;1.97;;
59998;SDS011;45859;51.378;6.736;2024-03-23T01:00:03;9.10;;;1.80;;
59998;SDS011;45859;51.378;6.736;2024-03-23T01:02:31;20.27;;;1.73;;
59998;SDS011;45859;51.378;6.736;2024-03-23T01:04:57;7.73;;;1.70;;
59998;SDS011;45859;51.378;6.736;2024-03-23T01:07:23;8.47;;;1.97;;
59998;SDS011;45859;51.378;6.736;2024-03-23T01:09:49;5.60;;;1.53;;
59998;SDS011;45859;51.378;6.736;2024-03-23T01:12:15;4.03;;;1.20;;
59998;SDS011;45859;51.378;6.736;2024-03-23T01:14:41;7.37;;;1.30;;
59998;SDS011;45859;51.378;6.736;2024-03-23T01:17:07;8.63;;;1.67;;
59998;SDS011;45859;51.378;6.736;2024-03-23T01:19:33;8.50;;;2.43;;
59998;SDS011;45859;51.378;6.736;2024-03-23T01:21:59;5.20;;;1.20;;
59998;SDS011;45859;51.378;6.736;2024-03-23T01:24:25;4.53;;;1.63;;
59998;SDS011;45859;51.378;6.736;2024-03-23T01:26:51;6.50;;;1.37;;
59998;SDS011;45859;51.378;6.736;2024-03-23T01:29:17;5.13;;;1.07;;
59998;SDS011;45859;51.378;6.736;2024-03-23T01:31:43;6.80;;;1.33;;
59998;SDS011;45859;51.378;6.736;2024-03-23T01:34:09;3.47;;;0.73;;
59998;SDS011;45859;51.378;6.736;2024-03-23T01:36:35;3.37;;;1.17;;
59998;SDS011;45859;51.378;6.736;2024-03-23T01:39:01;5.30;;;1.10;;
59998;SDS011;45859;51.378;6.736;2024-03-23T01:41:26;5.63;;;1.37;;
59998;SDS011;45859;51.378;6.736;2024-03-23T01:43:53;6.13;;;1.10;;
59998;SDS011;45859;51.378;6.736;2024-03-23T01:46:21;6.63;;;0.83;;
59998;SDS011;45859;51.378;6.736;2024-03-23T01:48:47;6.90;;;1.60;;
59998;SDS011;45859;51.378;6.736;2024-03-23T01:51:13;2.83;;;0.90;;
59998;SDS011;45859;51.378;6.736;2024-03-23T01:53:40;6.87;;;1.47;;
59998;SDS011;45859;51.378;6.736;2024-03-23T01:56:06;8.13;;;0.80;;
59998;SDS011;45859;51.378;6.736;2024-03-23T01:58:32;4.23;;;0.93;;
59998;SDS011;45859;51.378;6.736;2024-03-23T02:00:58;4.90;;;1.27;;
59998;SDS011;45859;51.378;6.736;2024-03-23T02:03:25;3.27;;;1.50;;
59998;SDS011;45859;51.378;6.736;2024-03-23T02:05:51;6.60;;;0.93;;
59998;SDS011;45859;51.378;6.736;2024-03-23T02:08:18;6.07;;;1.10;;
59998;SDS011;45859;51.378;6.736;2024-03-23T02:10:45;10.20;;;1.37;;
59998;SDS011;45859;51.378;6.736;2024-03-23T02:13:12;4.30;;;1.07;;
59998;SDS011;45859;51.378;6.736;2024-03-23T02:15:39;3.33;;;0.90;;
59998;SDS011;45859;51.378;6.736;2024-03-23T02:18:06;1.83;;;0.60;;
59998;SDS011;45859;51.378;6.736;2024-03-23T02:20:32;3.53;;;0.50;;
59998;SDS011;45859;51.378;6.736;2024-03-23T02:22:58;4.23;;;1.03;;
59998;SDS011;45859;51.378;6.736;2024-03-23T02:25:24;5.00;;;0.93;;
59998;SDS011;45859;51.378;6.736;2024-03-23T02:27:50;4.87;;;0.90;;
59998;SDS011;45859;51.378;6.736;2024-03-23T02:30:19;4.60;;;1.27;;
59998;SDS011;45859;51.378;6.736;2024-03-23T02:32:45;5.77;;;0.97;;
59998;SDS011;45859;51.378;6.736;2024-03-23T02:35:11;5.37;;;1.13;;
59998;SDS011;45859;51.378;6.736;2024-03-23T02:37:37;5.20;;;1.23;;
59998;SDS011;45859;51.378;6.736;2024-03-23T02:40:03;9.47;;;1.27;;
59998;SDS011;45859;51.378;6.736;2024-03-23T02:42:28;4.93;;;0.90;;
59998;SDS011;45859;51.378;6.736;2024-03-23T02:44:54;6.30;;;1.13;;
59998;SDS011;45859;51.378;6.736;2024-03-23T02:47:20;15.17;;;1.63;;
59998;SDS011;45859;51.378;6.736;2024-03-23T02:49:46;3.90;;;0.93;;
59998;SDS011;45859;51.378;6.736;2024-03-23T02:52:13;7.47;;;1.50;;
59998;SDS011;45859;51.378;6.736;2024-03-23T02:54:39;6.63;;;1.30;;
59998;SDS011;45859;51.378;6.736;2024-03-23T02:57:07;3.30;;;1.03;;
59998;SDS011;45859;51.378;6.736;2024-03-23T02:59:33;4.43;;;0.97;;
59998;SDS011;45859;51.378;6.736;2024-03-23T03:01:59;11.10;;;2.57;;
59998;SDS011;45859;51.378;6.736;2024-03-23T03:04:26;5.97;;;1.53;;
59998;SDS011;45859;51.378;6.736;2024-03-23T03:06:52;6.30;;;1.30;;
59998;SDS011;45859;51.378;6.736;2024-03-23T03:09:18;3.20;;;0.70;;
59998;SDS011;45859;51.378;6.736;2024-03-23T03:11:44;3.73;;;0.90;;
59998;SDS011;45859;51.378;6.736;2024-03-23T03:14:16;4.37;;;1.00;;
59998;SDS011;45859;51.378;6.736;2024-03-23T03:16:43;4.10;;;1.30;;
59998;SDS011;45859;51.378;6.736;2024-03-23T03:19:21;2.17;;;1.17;;
59998;SDS011;45859;51.378;6.736;2024-03-23T03:21:47;5.07;;;0.80;;
59998;SDS011;45859;51.378;6.736;2024-03-23T03:24:13;3.30;;;1.23;;
59998;SDS011;45859;51.378;6.736;2024-03-23T03:26:46;4.40;;;1.27;;
59998;SDS011;45859;51.378;6.736;2024-03-23T03:29:21;5.03;;;1.03;;
59998;SDS011;45859;51.378;6.736;2024-03-23T03:34:47;4.03;;;0.93;;
59998;SDS011;45859;51.378;6.736;2024-03-23T03:37:15;5.17;;;2.10;;
59998;SDS011;45859;51.378;6.736;2024-03-23T03:39:41;6.43;;;1.40;;
59998;SDS011;45859;51.378;6.736;2024-03-23T03:42:24;5.33;;;1.63;;
59998;SDS011;45859;51.378;6.736;2024-03-23T03:44:53;6.67;;;1.47;;
59998;SDS011;45859;51.378;6.736;2024-03-23T03:47:34;4.70;;;1.07;;
59998;SDS011;45859;51.378;6.736;2024-03-23T03:50:10;8.93;;;1.40;;
59998;SDS011;45859;51.378;6.736;2024-03-23T03:52:40;9.33;;;1.70;;
59998;SDS011;45859;51.378;6.736;2024-03-23T03:55:24;8.23;;;1.60;;
59998;SDS011;45859;51.378;6.736;2024-03-23T03:57:53;5.13;;;1.37;;
59998;SDS011;45859;51.378;6.736;2024-03-23T04:00:28;5.13;;;1.70;;
59998;SDS011;45859;51.378;6.736;2024-03-23T04:02:54;9.87;;;1.40;;
59998;SDS011;45859;51.378;6.736;2024-03-23T04:05:21;6.37;;;1.23;;
59998;SDS011;45859;51.378;6.736;2024-03-23T04:07:50;1.97;;;0.80;;
59998;SDS011;45859;51.378;6.736;2024-03-23T04:10:16;8.07;;;0.73;;
59998;SDS011;45859;51.378;6.736;2024-03-23T04:15:59;7.83;;;1.37;;
59998;SDS011;45859;51.378;6.736;2024-03-23T04:21:44;4.23;;;1.07;;
59998;SDS011;45859;51.378;6.736;2024-03-23T04:24:10;5.47;;;0.93;;
59998;SDS011;45859;51.378;6.736;2024-03-23T04:26:43;6.83;;;1.10;;
59998;SDS011;45859;51.378;6.736;2024-03-23T04:29:09;6.90;;;2.00;;
59998;SDS011;45859;51.378;6.736;2024-03-23T04:31:35;6.70;;;1.57;;
59998;SDS011;45859;51.378;6.736;2024-03-23T04:34:01;6.23;;;2.50;;
59998;SDS011;45859;51.378;6.736;2024-03-23T04:36:27;8.17;;;1.70;;
59998;SDS011;45859;51.378;6.736;2024-03-23T04:38:53;6.53;;;1.87;;
59998;SDS011;45859;51.378;6.736;2024-03-23T04:41:19;9.60;;;4.17;;
59998;SDS011;45859;51.378;6.736;2024-03-23T04:43:45;6.63;;;1.27;;
59998;SDS011;45859;51.378;6.736;2024-03-23T04:46:11;3.97;;;2.00;;
59998;SDS011;45859;51.378;6.736;2024-03-23T04:48:37;11.93;;;2.23;;
59998;SDS011;45859;51.378;6.736;2024-03-23T04:51:03;7.83;;;2.17;;
59998;SDS011;45859;51.378;6.736;2024-03-23T04:53:29;7.03;;;2.50;;
59998;SDS011;45859;51.378;6.736;2024-03-23T04:55:56;12.00;;;2.53;;
59998;SDS011;45859;51.378;6.736;2024-03-23T04:58:24;11.23;;;3.93;;
59998;SDS011;45859;51.378;6.736;2024-03-23T05:00:53;12.80;;;4.53;;
59998;SDS011;45859;51.378;6.736;2024-03-23T05:03:20;12.27;;;3.60;;
59998;SDS011;45859;51.378;6.736;2024-03-23T05:05:46;6.43;;;4.63;;
59998;SDS011;45859;51.378;6.736;2024-03-23T05:08:13;18.67;;;5.37;;
59998;SDS011;45859;51.378;6.736;2024-03-23T05:10:40;17.10;;;6.30;;
59998;SDS011;45859;51.378;6.736;2024-03-23T05:13:07;8.47;;;2.67;;
59998;SDS011;45859;51.378;6.736;2024-03-23T05:15:33;5.17;;;2.27;;
59998;SDS011;45859;51.378;6.736;2024-03-23T05:17:59;6.93;;;2.50;;
59998;SDS011;45859;51.378;6.736;2024-03-23T05:20:25;10.93;;;2.97;;
59998;SDS011;45859;51.378;6.736;2024-03-23T05:22:51;7.37;;;1.97;;
59998;SDS011;45859;51.378;6.736;2024-03-23T05:25:17;14.93;;;3.60;;
59998;SDS011;45859;51.378;6.736;2024-03-23T05:27:43;12.17;;;3.73;;
59998;SDS011;45859;51.378;6.736;2024-03-23T05:30:09;5.87;;;1.80;;
59998;SDS011;45859;51.378;6.736;2024-03-23T05:32:35;10.33;;;2.80;;
59998;SDS011;45859;51.378;6.736;2024-03-23T05:35:01;3.73;;;1.80;;
59998;SDS011;45859;51.378;6.736;2024-03-23T05:37:27;11.17;;;2.27;;
59998;SDS011;45859;51.378;6.736;2024-03-23T05:39:56;10.00;;;3.10;;
59998;SDS011;45859;51.378;6.736;2024-03-23T05:42:22;11.30;;;3.53;;
59998;SDS011;45859;51.378;6.736;2024-03-23T05:44:48;10.47;;;3.47;;
59998;SDS011;45859;51.378;6.736;2024-03-23T05:47:14;6.20;;;2.70;;
59998;SDS011;45859;51.378;6.736;2024-03-23T05:49:40;6.17;;;1.50;;
59998;SDS011;45859;51.378;6.736;2024-03-23T05:52:07;13.47;;;3.23;;
59998;SDS011;45859;51.378;6.736;2024-03-23T05:54:33;11.47;;;4.17;;
59998;SDS011;45859;51.378;6.736;2024-03-23T05:56:59;12.97;;;5.00;;
59998;SDS011;45859;51.378;6.736;2024-03-23T05:59:25;4.40;;;2.40;;
59998;SDS011;45859;51.378;6.736;2024-03-23T06:01:52;8.60;;;4.73;;
59998;SDS011;45859;51.378;6.736;2024-03-23T06:04:18;8.87;;;4.27;;
59998;SDS011;45859;51.378;6.736;2024-03-23T06:06:44;9.87;;;4.37;;
59998;SDS011;45859;51.378;6.736;2024-03-23T06:09:11;14.87;;;4.47;;
59998;SDS011;45859;51.378;6.736;2024-03-23T06:11:36;12.63;;;4.93;;
59998;SDS011;45859;51.378;6.736;2024-03-23T06:14:03;14.50;;;5.23;;
59998;SDS011;45859;51.378;6.736;2024-03-23T06:16:29;15.00;;;5.13;;
59998;SDS011;45859;51.378;6.736;2024-03-23T06:18:55;3.67;;;2.23;;
59998;SDS011;45859;51.378;6.736;2024-03-23T06:21:21;15.03;;;5.20;;
59998;SDS011;45859;51.378;6.736;2024-03-23T06:23:50;17.47;;;5.13;;
59998;SDS011;45859;51.378;6.736;2024-03-23T06:26:18;9.07;;;4.00;;
59998;SDS011;45859;51.378;6.736;2024-03-23T06:28:45;9.93;;;3.93;;
59998;SDS011;45859;51.378;6.736;2024-03-23T06:31:11;16.57;;;4.37;;
59998;SDS011;45859;51.378;6.736;2024-03-23T06:33:37;11.87;;;3.97;;
59998;SDS011;45859;51.378;6.736;2024-03-23T06:36:07;13.30;;;5.13;;
59998;SDS011;45859;51.378;6.736;2024-03-23T06:38:34;11.20;;;4.10;;
59998;SDS011;45859;51.378;6.736;2024-03-23T06:41:02;12.17;;;5.17;;
59998;SDS011;45859;51.378;6.736;2024-03-23T06:43:28;13.87;;;4.87;;
59998;SDS011;45859;51.378;6.736;2024-03-23T06:45:54;15.93;;;4.47;;
59998;SDS011;45859;51.378;6.736;2024-03-23T06:48:20;12.33;;;5.47;;
59998;SDS011;45859;51.378;6.736;2024-03-23T06:50:46;13.27;;;4.93;;
59998;SDS011;45859;51.378;6.736;2024-03-23T06:53:13;12.97;;;5.43;;
59998;SDS011;45859;51.378;6.736;2024-03-23T06:55:39;14.23;;;4.43;;
59998;SDS011;45859;51.378;6.736;2024-03-23T06:58:06;12.43;;;4.40;;
59998;SDS011;45859;51.378;6.736;2024-03-23T07:00:32;13.63;;;6.73;;
59998;SDS011;45859;51.378;6.736;2024-03-23T07:02:59;14.10;;;6.50;;
59998;SDS011;45859;51.378;6.736;2024-03-23T07:05:25;11.03;;;5.73;;
59998;SDS011;45859;51.378;6.736;2024-03-23T07:07:51;12.33;;;6.37;;
59998;SDS011;45859;51.378;6.736;2024-03-23T07:10:17;10.80;;;5.40;;
59998;SDS011;45859;51.378;6.736;2024-03-23T07:13:04;12.33;;;5.93;;
59998;SDS011;45859;51.378;6.736;2024-03-23T07:15:36;14.60;;;5.87;;
59998;SDS011;45859;51.378;6.736;2024-03-23T07:18:23;13.07;;;5.88;;
59998;SDS011;45859;51.378;6.736;2024-03-23T07:20:55;11.32;;;4.97;;
59998;SDS011;45859;51.378;6.736;2024-03-23T07:23:22;11.77;;;5.13;;
59998;SDS011;45859;51.378;6.736;2024-03-23T07:25:58;12.33;;;5.13;;
59998;SDS011;45859;51.378;6.736;2024-03-23T07:28:24;13.20;;;4.25;;
59998;SDS011;45859;51.378;6.736;2024-03-23T07:33:32;15.47;;;6.30;;
59998;SDS011;45859;51.378;6.736;2024-03-23T07:35:58;11.50;;;4.88;;
59998;SDS011;45859;51.378;6.736;2024-03-23T07:38:28;10.10;;;4.60;;
59998;SDS011;45859;51.378;6.736;2024-03-23T07:43:49;8.55;;;4.03;;
59998;SDS011;45859;51.378;6.736;2024-03-23T07:46:18;9.98;;;4.22;;
59998;SDS011;45859;51.378;6.736;2024-03-23T07:48:47;8.15;;;4.30;;
59998;SDS011;45859;51.378;6.736;2024-03-23T07:51:22;10.98;;;5.18;;
59998;SDS011;45859;51.378;6.736;2024-03-23T07:54:07;13.63;;;4.68;;
59998;SDS011;45859;51.378;6.736;2024-03-23T07:56:32;9.75;;;4.13;;
59998;SDS011;45859;51.378;6.736;2024-03-23T07:58:59;9.60;;;3.97;;
59998;SDS011;45859;51.378;6.736;2024-03-23T08:01:31;11.60;;;4.25;;
59998;SDS011;45859;51.378;6.736;2024-03-23T08:03:57;13.07;;;4.28;;
59998;SDS011;45859;51.378;6.736;2024-03-23T08:06:23;13.70;;;4.68;;
59998;SDS011;45859;51.378;6.736;2024-03-23T08:08:51;13.30;;;4.72;;
59998;SDS011;45859;51.378;6.736;2024-03-23T08:11:25;9.93;;;3.42;;
59998;SDS011;45859;51.378;6.736;2024-03-23T08:13:51;11.25;;;4.63;;
59998;SDS011;45859;51.378;6.736;2024-03-23T08:16:18;11.25;;;4.30;;
59998;SDS011;45859;51.378;6.736;2024-03-23T08:18:44;10.70;;;4.50;;
59998;SDS011;45859;51.378;6.736;2024-03-23T08:21:10;8.13;;;4.50;;
59998;SDS011;45859;51.378;6.736;2024-03-23T08:23:36;12.60;;;5.30;;
59998;SDS011;45859;51.378;6.736;2024-03-23T08:26:09;11.77;;;4.75;;
59998;SDS011;45859;51.378;6.736;2024-03-23T08:28:36;10.13;;;4.53;;
59998;SDS011;45859;51.378;6.736;2024-03-23T08:31:10;12.70;;;4.57;;
59998;SDS011;45859;51.378;6.736;2024-03-23T08:33:42;6.27;;;2.67;;
59998;SDS011;45859;51.378;6.736;2024-03-23T08:36:09;8.70;;;2.80;;
59998;SDS011;45859;51.378;6.736;2024-03-23T08:38:39;5.88;;;2.20;;
59998;SDS011;45859;51.378;6.736;2024-03-23T08:41:06;4.67;;;2.00;;
59998;SDS011;45859;51.378;6.736;2024-03-23T08:43:35;6.70;;;2.57;;
59998;SDS011;45859;51.378;6.736;2024-03-23T08:46:11;6.03;;;1.40;;
59998;SDS011;45859;51.378;6.736;2024-03-23T08:48:52;1.67;;;0.77;;
59998;SDS011;45859;51.378;6.736;2024-03-23T08:51:18;3.43;;;1.23;;
59998;SDS011;45859;51.378;6.736;2024-03-23T08:53:54;4.37;;;2.17;;
59998;SDS011;45859;51.378;6.736;2024-03-23T08:56:19;2.50;;;1.50;;
59998;SDS011;45859;51.378;6.736;2024-03-23T08:59:04;2.10;;;1.60;;
59998;SDS011;45859;51.378;6.736;2024-03-23T09:01:30;2.83;;;1.63;;
59998;SDS011;45859;51.378;6.736;2024-03-23T09:03:56;9.40;;;3.30;;
59998;SDS011;45859;51.378;6.736;2024-03-23T09:06:21;6.67;;;2.47;;
59998;SDS011;45859;51.378;6.736;2024-03-23T09:08:48;7.53;;;3.27;;
59998;SDS011;45859;51.378;6.736;2024-03-23T09:11:14;7.90;;;3.13;;
59998;SDS011;45859;51.378;6.736;2024-03-23T09:13:42;10.40;;;5.73;;
59998;SDS011;45859;51.378;6.736;2024-03-23T09:16:11;9.83;;;5.73;;
59998;SDS011;45859;51.378;6.736;2024-03-23T09:18:40;10.43;;;5.00;;
59998;SDS011;45859;51.378;6.736;2024-03-23T09:21:12;8.17;;;4.67;;
59998;SDS011;45859;51.378;6.736;2024-03-23T09:23:39;9.75;;;4.35;;
59998;SDS011;45859;51.378;6.736;2024-03-23T09:26:05;10.50;;;5.30;;
59998;SDS011;45859;51.378;6.736;2024-03-23T09:28:37;9.75;;;3.95;;
59998;SDS011;45859;51.378;6.736;2024-03-23T09:31:07;6.35;;;3.03;;
59998;SDS011;45859;51.378;6.736;2024-03-23T09:33:39;9.13;;;4.05;;
59998;SDS011;45859;51.378;6.736;2024-03-23T09:36:06;9.57;;;4.00;;
59998;SDS011;45859;51.378;6.736;2024-03-23T09:38:32;10.53;;;4.60;;
59998;SDS011;45859;51.378;6.736;2024-03-23T09:40:58;9.63;;;4.10;;
59998;SDS011;45859;51.378;6.736;2024-03-23T09:43:24;9.73;;;4.43;;
59998;SDS011;45859;51.378;6.736;2024-03-23T09:45:56;9.67;;;3.77;;
59998;SDS011;45859;51.378;6.736;2024-03-23T09:48:22;10.60;;;3.23;;
59998;SDS011;45859;51.378;6.736;2024-03-23T09:50:49;8.13;;;3.70;;
59998;SDS011;45859;51.378;6.736;2024-03-23T09:53:15;9.60;;;3.03;;
59998;SDS011;45859;51.378;6.736;2024-03-23T09:55:41;6.63;;;3.03;;
59998;SDS011;45859;51.378;6.736;2024-03-23T09:58:12;9.90;;;3.13;;
59998;SDS011;45859;51.378;6.736;2024-03-23T10:00:38;10.63;;;2.97;;
59998;SDS011;45859;51.378;6.736;2024-03-23T10:03:04;9.40;;;3.33;;
59998;SDS011;45859;51.378;6.736;2024-03-23T10:05:31;11.07;;;2.80;;
59998;SDS011;45859;51.378;6.736;2024-03-23T10:07:59;10.17;;;3.50;;
59998;SDS011;45859;51.378;6.736;2024-03-23T10:10:42;12.40;;;3.40;;
59998;SDS011;45859;51.378;6.736;2024-03-23T10:13:08;7.10;;;3.10;;
59998;SDS011;45859;51.378;6.736;2024-03-23T10:15:34;9.67;;;3.50;;
59998;SDS011;45859;51.378;6.736;2024-03-23T10:18:17;10.20;;;3.27;;
59998;SDS011;45859;51.378;6.736;2024-03-23T10:20:43;9.90;;;2.70;;
59998;SDS011;45859;51.378;6.736;2024-03-23T10:23:16;12.10;;;2.57;;
59998;SDS011;45859;51.378;6.736;2024-03-23T10:25:45;7.23;;;2.10;;
59998;SDS011;45859;51.378;6.736;2024-03-23T10:28:14;7.03;;;2.30;;
59998;SDS011;45859;51.378;6.736;2024-03-23T10:30:40;7.30;;;2.93;;
59998;SDS011;45859;51.378;6.736;2024-03-23T10:33:07;9.27;;;3.83;;
59998;SDS011;45859;51.378;6.736;2024-03-23T10:35:33;8.07;;;3.20;;
59998;SDS011;45859;51.378;6.736;2024-03-23T10:38:00;6.17;;;2.10;;
59998;SDS011;45859;51.378;6.736;2024-03-23T10:40:26;2.70;;;0.67;;
59998;SDS011;45859;51.378;6.736;2024-03-23T10:42:56;0.60;;;0.20;;
59998;SDS011;45859;51.378;6.736;2024-03-23T10:45:30;0.20;;;0.10;;
59998;SDS011;45859;51.378;6.736;2024-03-23T10:47:56;1.80;;;0.80;;
59998;SDS011;45859;51.378;6.736;2024-03-23T10:50:32;3.07;;;0.90;;
59998;SDS011;45859;51.378;6.736;2024-03-23T10:52:58;1.23;;;0.40;;
59998;SDS011;45859;51.378;6.736;2024-03-23T10:55:25;3.63;;;0.47;;
59998;SDS011;45859;51.378;6.736;2024-03-23T10:57:55;0.43;;;0.10;;
59998;SDS011;45859;51.378;6.736;2024-03-23T11:06:37;0.77;;;0.30;;
59998;SDS011;45859;51.378;6.736;2024-03-23T11:11:52;0.93;;;0.50;;
59998;SDS011;45859;51.378;6.736;2024-03-23T11:14:25;4.57;;;0.83;;
59998;SDS011;45859;51.378;6.736;2024-03-23T11:17:08;1.07;;;0.50;;
59998;SDS011;45859;51.378;6.736;2024-03-23T11:19:37;5.10;;;0.70;;
59998;SDS011;45859;51.378;6.736;2024-03-23T11:25:16;2.20;;;0.70;;
59998;SDS011;45859;51.378;6.736;2024-03-23T11:27:46;5.57;;;1.40;;
59998;SDS011;45859;51.378;6.736;2024-03-23T11:30:32;2.37;;;1.00;;
59998;SDS011;45859;51.378;6.736;2024-03-23T11:35:59;3.53;;;1.00;;
59998;SDS011;45859;51.378;6.736;2024-03-23T11:41:24;8.90;;;3.90;;
59998;SDS011;45859;51.378;6.736;2024-03-23T11:43:56;3.77;;;0.90;;
59998;SDS011;45859;51.378;6.736;2024-03-23T11:46:28;2.53;;;1.03;;
59998;SDS011;45859;51.378;6.736;2024-03-23T11:49:19;8.90;;;2.70;;
59998;SDS011;45859;51.378;6.736;2024-03-23T11:52:12;3.27;;;1.10;;
59998;SDS011;45859;51.378;6.736;2024-03-23T11:54:47;5.80;;;1.57;;
59998;SDS011;45859;51.378;6.736;2024-03-23T11:57:16;3.30;;;0.90;;
59998;SDS011;45859;51.378;6.736;2024-03-23T11:59:48;3.07;;;1.10;;
59998;SDS011;45859;51.378;6.736;2024-03-23T12:02:23;6.97;;;2.80;;
59998;SDS011;45859;51.378;6.736;2024-03-23T12:11:19;10.10;;;5.60;;
59998;SDS011;45859;51.378;6.736;2024-03-23T12:14:00;22.50;;;7.90;;
59998;SDS011;45859;51.378;6.736;2024-03-23T12:16:29;6.77;;;2.53;;
59998;SDS011;45859;51.378;6.736;2024-03-23T12:19:04;6.43;;;1.97;;
59998;SDS011;45859;51.378;6.736;2024-03-23T12:21:34;2.60;;;0.77;;
59998;SDS011;45859;51.378;6.736;2024-03-23T12:24:08;2.07;;;0.60;;
59998;SDS011;45859;51.378;6.736;2024-03-23T12:26:34;5.50;;;2.30;;
59998;SDS011;45859;51.378;6.736;2024-03-23T12:29:02;6.57;;;2.43;;
59998;SDS011;45859;51.378;6.736;2024-03-23T12:31:33;2.10;;;0.77;;
59998;SDS011;45859;51.378;6.736;2024-03-23T12:34:09;2.00;;;0.70;;
59998;SDS011;45859;51.378;6.736;2024-03-23T12:36:35;4.17;;;1.87;;
59998;SDS011;45859;51.378;6.736;2024-03-23T12:39:02;5.23;;;2.10;;
59998;SDS011;45859;51.378;6.736;2024-03-23T12:41:44;1.55;;;0.52;;
59998;SDS011;45859;51.378;6.736;2024-03-23T12:47:55;4.03;;;0.60;;
59998;SDS011;45859;51.378;6.736;2024-03-23T12:51:00;1.00;;;0.47;;
59998;SDS011;45859;51.378;6.736;2024-03-23T12:59:36;2.40;;;0.60;;
59998;SDS011;45859;51.378;6.736;2024-03-23T13:02:38;2.57;;;0.57;;
59998;SDS011;45859;51.378;6.736;2024-03-23T13:07:50;4.60;;;0.63;;
59998;SDS011;45859;51.378;6.736;2024-03-23T13:10:16;2.50;;;0.80;;
59998;SDS011;45859;51.378;6.736;2024-03-23T13:12:46;9.23;;;1.53;;
59998;SDS011;45859;51.378;6.736;2024-03-23T13:15:15;2.17;;;0.77;;
59998;SDS011;45859;51.378;6.736;2024-03-23T13:17:48;2.55;;;0.60;;
59998;SDS011;45859;51.378;6.736;2024-03-23T13:20:15;2.73;;;0.97;;
59998;SDS011;45859;51.378;6.736;2024-03-23T13:22:44;2.87;;;0.73;;
59998;SDS011;45859;51.378;6.736;2024-03-23T13:25:18;3.43;;;0.67;;
59998;SDS011;45859;51.378;6.736;2024-03-23T13:27:44;2.90;;;1.20;;
59998;SDS011;45859;51.378;6.736;2024-03-23T13:30:49;1.53;;;0.47;;
59998;SDS011;45859;51.378;6.736;2024-03-23T13:33:41;2.40;;;0.43;;
59998;SDS011;45859;51.378;6.736;2024-03-23T13:36:18;3.17;;;0.53;;
59998;SDS011;45859;51.378;6.736;2024-03-23T13:38:51;1.13;;;0.47;;
59998;SDS011;45859;51.378;6.736;2024-03-23T13:41:23;0.83;;;0.40;;
59998;SDS011;45859;51.378;6.736;2024-03-23T13:43:52;2.23;;;0.53;;
59998;SDS011;45859;51.378;6.736;2024-03-23T13:46:18;2.37;;;1.30;;
59998;SDS011;45859;51.378;6.736;2024-03-23T13:48:44;1.97;;;0.43;;
59998;SDS011;45859;51.378;6.736;2024-03-23T13:51:10;3.87;;;0.90;;
59998;SDS011;45859;51.378;6.736;2024-03-23T13:53:41;2.53;;;0.40;;
59998;SDS011;45859;51.378;6.736;2024-03-23T13:56:07;1.50;;;0.40;;
59998;SDS011;45859;51.378;6.736;2024-03-23T13:58:33;3.57;;;1.33;;
59998;SDS011;45859;51.378;6.736;2024-03-23T14:01:00;2.60;;;0.40;;
59998;SDS011;45859;51.378;6.736;2024-03-23T14:03:26;2.57;;;0.53;;
59998;SDS011;45859;51.378;6.736;2024-03-23T14:06:00;1.20;;;0.30;;
59998;SDS011;45859;51.378;6.736;2024-03-23T14:08:28;4.03;;;0.67;;
59998;SDS011;45859;51.378;6.736;2024-03-23T14:10:57;1.20;;;0.30;;
59998;SDS011;45859;51.378;6.736;2024-03-23T14:13:23;2.80;;;0.50;;
59998;SDS011;45859;51.378;6.736;2024-03-23T14:15:52;0.43;;;0.43;;
59998;SDS011;45859;51.378;6.736;2024-03-23T14:18:21;3.93;;;1.10;;
59998;SDS011;45859;51.378;6.736;2024-03-23T14:20:48;2.10;;;0.30;;
59998;SDS011;45859;51.378;6.736;2024-03-23T14:23:15;0.37;;;0.20;;
59998;SDS011;45859;51.378;6.736;2024-03-23T14:25:41;0.27;;;0.27;;
59998;SDS011;45859;51.378;6.736;2024-03-23T14:28:07;6.33;;;1.70;;
59998;SDS011;45859;51.378;6.736;2024-03-23T14:30:45;0.73;;;0.50;;
59998;SDS011;45859;51.378;6.736;2024-03-23T14:33:11;4.50;;;1.70;;
59998;SDS011;45859;51.378;6.736;2024-03-23T14:35:39;0.70;;;0.47;;
59998;SDS011;45859;51.378;6.736;2024-03-23T14:38:06;2.60;;;0.70;;
59998;SDS011;45859;51.378;6.736;2024-03-23T14:40:31;5.47;;;1.93;;
59998;SDS011;45859;51.378;6.736;2024-03-23T14:42:57;1.53;;;0.50;;
59998;SDS011;45859;51.378;6.736;2024-03-23T14:45:23;1.40;;;1.00;;
59998;SDS011;45859;51.378;6.736;2024-03-23T14:47:52;4.73;;;1.60;;
59998;SDS011;45859;51.378;6.736;2024-03-23T14:50:19;3.20;;;0.60;;
59998;SDS011;45859;51.378;6.736;2024-03-23T14:52:46;0.53;;;0.30;;
59998;SDS011;45859;51.378;6.736;2024-03-23T14:55:13;4.23;;;2.40;;
59998;SDS011;45859;51.378;6.736;2024-03-23T14:57:39;3.03;;;2.07;;
59998;SDS011;45859;51.378;6.736;2024-03-23T15:00:08;1.80;;;1.23;;
59998;SDS011;45859;51.378;6.736;2024-03-23T15:02:38;0.70;;;0.63;;
59998;SDS011;45859;51.378;6.736;2024-03-23T15:05:04;1.00;;;0.60;;
59998;SDS011;45859;51.378;6.736;2024-03-23T15:07:34;4.07;;;1.55;;
59998;SDS011;45859;51.378;6.736;2024-03-23T15:10:00;7.83;;;1.67;;
59998;SDS011;45859;51.378;6.736;2024-03-23T15:12:26;2.47;;;1.50;;
59998;SDS011;45859;51.378;6.736;2024-03-23T15:14:52;5.57;;;1.60;;
59998;SDS011;45859;51.378;6.736;2024-03-23T15:17:19;2.63;;;1.10;;
59998;SDS011;45859;51.378;6.736;2024-03-23T15:19:45;3.03;;;1.13;;
59998;SDS011;45859;51.378;6.736;2024-03-23T15:22:11;3.57;;;1.30;;
59998;SDS011;45859;51.378;6.736;2024-03-23T15:24:37;3.63;;;1.20;;
59998;SDS011;45859;51.378;6.736;2024-03-23T15:27:03;3.20;;;0.67;;
59998;SDS011;45859;51.378;6.736;2024-03-23T15:29:29;1.50;;;0.60;;
59998;SDS011;45859;51.378;6.736;2024-03-23T15:31:56;2.83;;;1.20;;
59998;SDS011;45859;51.378;6.736;2024-03-23T15:34:22;1.43;;;0.20;;
59998;SDS011;45859;51.378;6.736;2024-03-23T15:36:48;1.30;;;0.40;;
59998;SDS011;45859;51.378;6.736;2024-03-23T15:39:16;0.77;;;0.47;;
59998;SDS011;45859;51.378;6.736;2024-03-23T15:41:43;1.70;;;0.87;;
59998;SDS011;45859;51.378;6.736;2024-03-23T15:46:44;0.87;;;0.67;;
59998;SDS011;45859;51.378;6.736;2024-03-23T15:49:10;1.80;;;0.50;;
59998;SDS011;45859;51.378;6.736;2024-03-23T15:51:36;0.97;;;0.20;;
59998;SDS011;45859;51.378;6.736;2024-03-23T15:54:17;1.90;;;0.40;;
59998;SDS011;45859;51.378;6.736;2024-03-23T15:56:49;3.80;;;0.67;;
59998;SDS011;45859;51.378;6.736;2024-03-23T15:59:16;1.50;;;0.50;;
59998;SDS011;45859;51.378;6.736;2024-03-23T16:01:45;2.93;;;1.03;;
59998;SDS011;45859;51.378;6.736;2024-03-23T16:04:18;0.50;;;0.10;;
59998;SDS011;45859;51.378;6.736;2024-03-23T16:06:47;3.93;;;0.67;;
59998;SDS011;45859;51.378;6.736;2024-03-23T16:09:16;0.33;;;0.17;;
59998;SDS011;45859;51.378;6.736;2024-03-23T16:11:47;1.97;;;0.33;;
59998;SDS011;45859;51.378;6.736;2024-03-23T16:14:13;0.87;;;0.47;;
59998;SDS011;45859;51.378;6.736;2024-03-23T16:16:40;0.40;;;0.30;;
59998;SDS011;45859;51.378;6.736;2024-03-23T16:19:08;0.63;;;0.10;;
59998;SDS011;45859;51.378;6.736;2024-03-23T16:21:49;1.90;;;0.30;;
59998;SDS011;45859;51.378;6.736;2024-03-23T16:24:29;1.90;;;0.77;;
59998;SDS011;45859;51.378;6.736;2024-03-23T16:27:22;0.07;;;0.07;;
59998;SDS011;45859;51.378;6.736;2024-03-23T16:29:51;2.33;;;0.40;;
59998;SDS011;45859;51.378;6.736;2024-03-23T16:32:20;0.20;;;0.10;;
59998;SDS011;45859;51.378;6.736;2024-03-23T16:35:23;1.13;;;0.30;;
59998;SDS011;45859;51.378;6.736;2024-03-23T16:37:51;0.17;;;0.03;;
59998;SDS011;45859;51.378;6.736;2024-03-23T16:40:24;1.03;;;0.40;;
59998;SDS011;45859;51.378;6.736;2024-03-23T16:42:53;0.23;;;0.17;;